This is the latest recevied weather packets stored in our database for station/object KF4KUL. If no packets are shown the sender has not sent any weather packets the latest 10 day(s).
| Time | Temp. | Humidity | Pressure | Rain* | Wind** | Luminosity | Snow |
|---|---|---|---|---|---|---|---|
| 1777587051 | 27.78° C | 68% | 1010.6 hPa | 0 mm | - | - | - |
| 1777586150 | 27.78° C | 66% | 1010.7 hPa | 0 mm | - | - | - |
| 1777585249 | 28.33° C | 65% | 1010.6 hPa | 0 mm | - | - | - |
| 1777584348 | 28.33° C | 64% | 1010.6 hPa | 0 mm | - | - | - |
| 1777583447 | 28.89° C | 63% | 1010.8 hPa | 0 mm | - | - | - |
| 1777582546 | 29.44° C | 62% | 1010.8 hPa | 0 mm | - | - | - |
| 1777581645 | 28.89° C | 60% | 1010.8 hPa | 0 mm | - | - | - |
| 1777580744 | 29.44° C | 61% | 1011.1 hPa | 0 mm | - | - | - |
| 1777579843 | 27.78° C | 66% | 1011.3 hPa | 0 mm | - | - | - |
| 1777578942 | 27.78° C | 65% | 1011.4 hPa | 0 mm | - | - | - |
| 1777578041 | 27.78° C | 67% | 1011.2 hPa | 0 mm | - | - | - |
| 1777577140 | 28.33° C | 63% | 1011.5 hPa | 0 mm | - | - | - |
| 1777576239 | 28.89° C | 62% | 1011.6 hPa | 0 mm | - | - | - |
| 1777575338 | 28.33° C | 64% | 1011.7 hPa | 0 mm | - | - | - |
| 1777574437 | 28.33° C | 63% | 1011.7 hPa | 0 mm | - | - | - |
| 1777573536 | 28.89° C | 63% | 1012 hPa | 0 mm | - | - | - |
| 1777572635 | 29.44° C | 62% | 1012.3 hPa | 0 mm | - | - | - |
| 1777571734 | 27.78° C | 66% | 1012.4 hPa | 0 mm | - | - | - |
| 1777570833 | 27.78° C | 67% | 1012.5 hPa | 0 mm | - | - | - |
| 1777569932 | 28.33° C | 64% | 1012.5 hPa | 0 mm | - | - | - |
| 1777569031 | 28.89° C | 63% | 1012.7 hPa | 0 mm | - | - | - |
| 1777568130 | 28.89° C | 63% | 1012.8 hPa | 0 mm | - | - | - |
| 1777567229 | 30° C | 60% | 1012.9 hPa | 0 mm | - | - | - |
| 1777566328 | 30° C | 60% | 1012.7 hPa | 0 mm | - | - | - |
| 1777565427 | 28.89° C | 64% | 1012.6 hPa | 0 mm | - | - | - |
* Rain latest hour (hover to see other rain measurements)
** Current wind speed in m/s (hover to see current wind gust speed)